sensor_id;sensor_type;location;lat;lon;timestamp;pressure;altitude;pressure_sealevel;temperature;humidity
27712;BME280;2377;51.734;8.950;2023-01-10T00:00:28;97132.06;;;6.12;100.00
27712;BME280;2377;51.734;8.950;2023-01-10T00:03:00;97132.47;;;6.09;100.00
27712;BME280;2377;51.734;8.950;2023-01-10T00:05:27;97148.28;;;6.11;100.00
27712;BME280;2377;51.734;8.950;2023-01-10T00:07:54;97140.66;;;5.91;100.00
27712;BME280;2377;51.734;8.950;2023-01-10T00:10:24;97163.69;;;5.97;100.00
27712;BME280;2377;51.734;8.950;2023-01-10T00:12:51;97164.47;;;6.04;100.00
27712;BME280;2377;51.734;8.950;2023-01-10T00:15:35;97166.41;;;6.08;100.00
27712;BME280;2377;51.734;8.950;2023-01-10T00:18:04;97182.03;;;5.99;100.00
27712;BME280;2377;51.734;8.950;2023-01-10T00:20:31;97192.38;;;6.04;100.00
27712;BME280;2377;51.734;8.950;2023-01-10T00:22:59;97195.13;;;5.96;100.00
27712;BME280;2377;51.734;8.950;2023-01-10T00:25:26;97187.69;;;6.07;100.00
27712;BME280;2377;51.734;8.950;2023-01-10T00:27:54;97205.84;;;5.98;100.00
27712;BME280;2377;51.734;8.950;2023-01-10T00:30:26;97208.19;;;5.99;100.00
27712;BME280;2377;51.734;8.950;2023-01-10T00:32:53;97218.72;;;6.03;99.99
27712;BME280;2377;51.734;8.950;2023-01-10T00:35:22;97220.28;;;6.04;100.00
27712;BME280;2377;51.734;8.950;2023-01-10T00:37:51;97216.38;;;6.01;100.00
27712;BME280;2377;51.734;8.950;2023-01-10T00:40:22;97230.41;;;6.04;100.00
27712;BME280;2377;51.734;8.950;2023-01-10T00:42:49;97230.41;;;6.04;99.96
27712;BME280;2377;51.734;8.950;2023-01-10T00:45:46;97241.38;;;5.98;100.00
27712;BME280;2377;51.734;8.950;2023-01-10T00:48:14;97242.13;;;5.98;100.00
27712;BME280;2377;51.734;8.950;2023-01-10T00:50:42;97247.63;;;5.95;100.00
27712;BME280;2377;51.734;8.950;2023-01-10T00:53:11;97261.63;;;5.91;100.00
27712;BME280;2377;51.734;8.950;2023-01-10T00:55:38;97264.97;;;5.98;100.00
27712;BME280;2377;51.734;8.950;2023-01-10T00:58:06;97266.91;;;5.96;100.00
27712;BME280;2377;51.734;8.950;2023-01-10T01:00:36;97280.94;;;5.92;100.00
27712;BME280;2377;51.734;8.950;2023-01-10T01:03:04;97269.22;;;5.91;100.00
27712;BME280;2377;51.734;8.950;2023-01-10T01:05:38;97274.31;;;5.91;100.00
27712;BME280;2377;51.734;8.950;2023-01-10T01:08:06;97293.41;;;5.87;100.00
27712;BME280;2377;51.734;8.950;2023-01-10T01:10:33;97295.75;;;5.88;100.00
27712;BME280;2377;51.734;8.950;2023-01-10T01:13:07;97306.91;;;5.94;100.00
27712;BME280;2377;51.734;8.950;2023-01-10T01:15:35;97300.63;;;5.90;100.00
27712;BME280;2377;51.734;8.950;2023-01-10T01:18:04;97310.78;;;5.90;100.00
27712;BME280;2377;51.734;8.950;2023-01-10T01:20:32;97309.97;;;5.83;100.00
27712;BME280;2377;51.734;8.950;2023-01-10T01:22:59;97320.19;;;5.96;100.00
27712;BME280;2377;51.734;8.950;2023-01-10T01:25:28;97334.63;;;5.96;100.00
27712;BME280;2377;51.734;8.950;2023-01-10T01:27:55;97326.78;;;5.84;100.00
27712;BME280;2377;51.734;8.950;2023-01-10T01:30:22;97338.72;;;5.97;100.00
27712;BME280;2377;51.734;8.950;2023-01-10T01:32:49;97355.09;;;5.94;100.00
27712;BME280;2377;51.734;8.950;2023-01-10T01:35:17;97359.38;;;5.93;100.00
27712;BME280;2377;51.734;8.950;2023-01-10T01:37:44;97366.56;;;5.83;100.00
27712;BME280;2377;51.734;8.950;2023-01-10T01:40:13;97366.56;;;5.90;100.00
27712;BME280;2377;51.734;8.950;2023-01-10T01:42:42;97366.19;;;5.93;100.00
27712;BME280;2377;51.734;8.950;2023-01-10T01:45:34;97375.00;;;5.97;100.00
27712;BME280;2377;51.734;8.950;2023-01-10T01:48:33;97375.59;;;5.99;100.00
27712;BME280;2377;51.734;8.950;2023-01-10T01:51:08;97379.50;;;5.95;100.00
27712;BME280;2377;51.734;8.950;2023-01-10T01:53:42;97388.09;;;6.01;100.00
27712;BME280;2377;51.734;8.950;2023-01-10T01:56:16;97393.94;;;6.01;100.00
27712;BME280;2377;51.734;8.950;2023-01-10T01:58:50;97396.69;;;6.00;100.00
27712;BME280;2377;51.734;8.950;2023-01-10T02:01:21;97402.31;;;5.95;100.00
27712;BME280;2377;51.734;8.950;2023-01-10T02:03:53;97406.63;;;6.01;100.00
27712;BME280;2377;51.734;8.950;2023-01-10T02:06:23;97404.41;;;5.85;100.00
27712;BME280;2377;51.734;8.950;2023-01-10T02:08:58;97410.91;;;5.94;100.00
27712;BME280;2377;51.734;8.950;2023-01-10T02:11:29;97418.88;;;5.91;100.00
27712;BME280;2377;51.734;8.950;2023-01-10T02:13:59;97418.13;;;5.97;100.00
27712;BME280;2377;51.734;8.950;2023-01-10T02:16:28;97433.91;;;5.99;100.00
27712;BME280;2377;51.734;8.950;2023-01-10T02:18:55;97444.69;;;6.08;100.00
27712;BME280;2377;51.734;8.950;2023-01-10T02:22:12;97442.91;;;5.95;100.00
27712;BME280;2377;51.734;8.950;2023-01-10T02:28:37;97458.34;;;6.00;100.00
27712;BME280;2377;51.734;8.950;2023-01-10T02:34:24;97461.03;;;5.99;100.00
27712;BME280;2377;51.734;8.950;2023-01-10T02:37:04;97461.81;;;5.99;100.00
27712;BME280;2377;51.734;8.950;2023-01-10T02:39:48;97444.06;;;5.99;100.00
27712;BME280;2377;51.734;8.950;2023-01-10T02:42:26;97462.41;;;5.95;100.00
27712;BME280;2377;51.734;8.950;2023-01-10T02:45:03;97465.72;;;6.02;100.00
27712;BME280;2377;51.734;8.950;2023-01-10T02:47:36;97470.81;;;5.95;100.00
27712;BME280;2377;51.734;8.950;2023-01-10T02:50:28;97459.59;;;5.83;100.00
27712;BME280;2377;51.734;8.950;2023-01-10T02:52:59;97468.44;;;5.93;100.00
27712;BME280;2377;51.734;8.950;2023-01-10T02:55:42;97468.44;;;5.93;100.00
27712;BME280;2377;51.734;8.950;2023-01-10T02:58:25;97469.22;;;5.94;100.00
27712;BME280;2377;51.734;8.950;2023-01-10T03:01:10;97480.56;;;5.98;100.00
27712;BME280;2377;51.734;8.950;2023-01-10T03:03:51;97476.25;;;5.99;100.00
27712;BME280;2377;51.734;8.950;2023-01-10T03:06:40;97487.19;;;5.99;100.00
27712;BME280;2377;51.734;8.950;2023-01-10T03:09:18;97498.53;;;6.03;100.00
27712;BME280;2377;51.734;8.950;2023-01-10T03:11:54;97492.47;;;5.98;100.00
27712;BME280;2377;51.734;8.950;2023-01-10T03:14:27;97496.97;;;6.02;100.00
27712;BME280;2377;51.734;8.950;2023-01-10T03:16:59;97501.47;;;6.00;100.00
27712;BME280;2377;51.734;8.950;2023-01-10T03:19:33;97504.75;;;6.01;100.00
27712;BME280;2377;51.734;8.950;2023-01-10T03:22:03;97493.44;;;5.97;100.00
27712;BME280;2377;51.734;8.950;2023-01-10T03:24:41;97500.84;;;5.98;100.00
27712;BME280;2377;51.734;8.950;2023-01-10T03:27:13;97516.63;;;5.93;100.00
27712;BME280;2377;51.734;8.950;2023-01-10T03:29:53;97512.50;;;5.86;100.00
27712;BME280;2377;51.734;8.950;2023-01-10T03:32:26;97519.47;;;5.77;100.00
27712;BME280;2377;51.734;8.950;2023-01-10T03:34:55;97517.16;;;5.82;100.00
27712;BME280;2377;51.734;8.950;2023-01-10T03:37:33;97527.50;;;5.87;100.00
27712;BME280;2377;51.734;8.950;2023-01-10T03:40:08;97529.28;;;5.93;100.00
27712;BME280;2377;51.734;8.950;2023-01-10T03:42:48;97530.84;;;5.88;100.00
27712;BME280;2377;51.734;8.950;2023-01-10T03:45:44;97536.75;;;5.95;100.00
27712;BME280;2377;51.734;8.950;2023-01-10T03:48:16;97553.69;;;5.95;100.00
27712;BME280;2377;51.734;8.950;2023-01-10T03:50:45;97547.47;;;5.97;100.00
27712;BME280;2377;51.734;8.950;2023-01-10T03:53:15;97556.00;;;5.89;100.00
27712;BME280;2377;51.734;8.950;2023-01-10T03:55:44;97562.13;;;5.95;100.00
27712;BME280;2377;51.734;8.950;2023-01-10T03:58:11;97568.94;;;5.95;100.00
27712;BME280;2377;51.734;8.950;2023-01-10T04:00:38;97568.75;;;5.96;100.00
27712;BME280;2377;51.734;8.950;2023-01-10T04:03:06;97585.28;;;5.92;100.00
27712;BME280;2377;51.734;8.950;2023-01-10T04:05:34;97582.97;;;5.97;100.00
27712;BME280;2377;51.734;8.950;2023-01-10T04:08:01;97582.84;;;6.05;100.00
27712;BME280;2377;51.734;8.950;2023-01-10T04:10:30;97592.78;;;6.00;100.00
27712;BME280;2377;51.734;8.950;2023-01-10T04:12:59;97601.34;;;5.99;100.00
27712;BME280;2377;51.734;8.950;2023-01-10T04:15:27;97598.41;;;5.96;100.00
27712;BME280;2377;51.734;8.950;2023-01-10T04:17:54;97611.25;;;5.94;100.00
27712;BME280;2377;51.734;8.950;2023-01-10T04:20:22;97599.72;;;5.91;100.00
27712;BME280;2377;51.734;8.950;2023-01-10T04:22:51;97602.25;;;5.91;99.56
27712;BME280;2377;51.734;8.950;2023-01-10T04:25:19;97604.78;;;5.91;99.45
27712;BME280;2377;51.734;8.950;2023-01-10T04:27:49;97607.78;;;5.95;99.09
27712;BME280;2377;51.734;8.950;2023-01-10T04:30:18;97610.31;;;5.95;98.69
27712;BME280;2377;51.734;8.950;2023-01-10T04:32:46;97617.13;;;5.95;98.29
27712;BME280;2377;51.734;8.950;2023-01-10T04:35:13;97623.53;;;5.90;98.56
27712;BME280;2377;51.734;8.950;2023-01-10T04:37:40;97626.25;;;5.89;98.18
27712;BME280;2377;51.734;8.950;2023-01-10T04:40:10;97632.66;;;5.85;98.13
27712;BME280;2377;51.734;8.950;2023-01-10T04:42:37;97635.00;;;5.86;98.35
27712;BME280;2377;51.734;8.950;2023-01-10T04:45:07;97631.22;;;5.76;98.79
27712;BME280;2377;51.734;8.950;2023-01-10T04:47:36;97646.66;;;5.81;99.09
27712;BME280;2377;51.734;8.950;2023-01-10T04:50:04;97647.09;;;5.84;99.04
27712;BME280;2377;51.734;8.950;2023-01-10T04:52:31;97648.63;;;5.79;98.77
27712;BME280;2377;51.734;8.950;2023-01-10T04:54:58;97646.31;;;5.84;99.02
27712;BME280;2377;51.734;8.950;2023-01-10T04:57:25;97643.00;;;5.83;99.13
27712;BME280;2377;51.734;8.950;2023-01-10T04:59:52;97639.44;;;5.78;98.86
27712;BME280;2377;51.734;8.950;2023-01-10T05:02:21;97636.34;;;5.82;98.84
27712;BME280;2377;51.734;8.950;2023-01-10T05:04:48;97638.88;;;5.82;98.61
27712;BME280;2377;51.734;8.950;2023-01-10T05:07:15;97642.19;;;5.83;98.82
27712;BME280;2377;51.734;8.950;2023-01-10T05:09:42;97651.50;;;5.76;98.86
27712;BME280;2377;51.734;8.950;2023-01-10T05:12:09;97657.00;;;5.79;98.73
27712;BME280;2377;51.734;8.950;2023-01-10T05:14:36;97660.31;;;5.80;98.41
27712;BME280;2377;51.734;8.950;2023-01-10T05:17:03;97655.81;;;5.75;97.84
27712;BME280;2377;51.734;8.950;2023-01-10T05:19:32;97663.59;;;5.73;98.16
27712;BME280;2377;51.734;8.950;2023-01-10T05:21:59;97661.03;;;5.73;98.19
27712;BME280;2377;51.734;8.950;2023-01-10T05:24:26;97673.16;;;5.78;98.00
27712;BME280;2377;51.734;8.950;2023-01-10T05:26:53;97683.88;;;5.73;98.15
27712;BME280;2377;51.734;8.950;2023-01-10T05:29:20;97690.53;;;5.75;97.80
27712;BME280;2377;51.734;8.950;2023-01-10T05:31:49;97688.00;;;5.75;98.14
27712;BME280;2377;51.734;8.950;2023-01-10T05:34:17;97702.81;;;5.78;97.75
27712;BME280;2377;51.734;8.950;2023-01-10T05:36:45;97708.69;;;5.78;97.62
27712;BME280;2377;51.734;8.950;2023-01-10T05:39:12;97714.56;;;5.79;98.40
27712;BME280;2377;51.734;8.950;2023-01-10T05:41:39;97714.50;;;5.72;98.37
27712;BME280;2377;51.734;8.950;2023-01-10T05:44:06;97726.03;;;5.75;98.27
27712;BME280;2377;51.734;8.950;2023-01-10T05:46:34;97727.97;;;5.72;98.31
27712;BME280;2377;51.734;8.950;2023-01-10T05:49:01;97732.88;;;5.81;98.07
27712;BME280;2377;51.734;8.950;2023-01-10T05:51:28;97732.09;;;5.80;97.82
27712;BME280;2377;51.734;8.950;2023-01-10T05:53:57;97742.38;;;5.72;97.80
27712;BME280;2377;51.734;8.950;2023-01-10T05:56:24;97752.59;;;5.79;98.25
27712;BME280;2377;51.734;8.950;2023-01-10T05:58:52;97746.25;;;5.68;97.97
27712;BME280;2377;51.734;8.950;2023-01-10T06:01:19;97758.25;;;5.81;97.68
27712;BME280;2377;51.734;8.950;2023-01-10T06:03:46;97756.09;;;5.78;97.67
27712;BME280;2377;51.734;8.950;2023-01-10T06:06:14;97768.53;;;5.72;98.05
27712;BME280;2377;51.734;8.950;2023-01-10T06:08:41;97770.50;;;5.77;98.17
27712;BME280;2377;51.734;8.950;2023-01-10T06:11:09;97770.75;;;5.82;97.89
27712;BME280;2377;51.734;8.950;2023-01-10T06:13:36;97769.53;;;5.78;97.51
27712;BME280;2377;51.734;8.950;2023-01-10T06:16:04;97779.13;;;5.83;97.50
27712;BME280;2377;51.734;8.950;2023-01-10T06:18:31;97785.59;;;5.85;97.14
27712;BME280;2377;51.734;8.950;2023-01-10T06:20:58;97796.72;;;5.84;97.50
27712;BME280;2377;51.734;8.950;2023-01-10T06:23:25;97788.03;;;5.93;97.16
27712;BME280;2377;51.734;8.950;2023-01-10T06:25:54;97786.03;;;5.89;97.15
27712;BME280;2377;51.734;8.950;2023-01-10T06:28:23;97791.47;;;5.86;96.94
27712;BME280;2377;51.734;8.950;2023-01-10T06:30:50;97796.53;;;5.86;97.08
27712;BME280;2377;51.734;8.950;2023-01-10T06:33:17;97797.38;;;5.93;96.68
27712;BME280;2377;51.734;8.950;2023-01-10T06:35:44;97803.41;;;5.92;96.40
27712;BME280;2377;51.734;8.950;2023-01-10T06:38:13;97799.69;;;5.88;96.74
27712;BME280;2377;51.734;8.950;2023-01-10T06:40:43;97794.97;;;5.85;97.00
27712;BME280;2377;51.734;8.950;2023-01-10T06:43:10;97811.50;;;5.81;96.83
27712;BME280;2377;51.734;8.950;2023-01-10T06:45:38;97809.78;;;5.81;97.05
27712;BME280;2377;51.734;8.950;2023-01-10T06:48:05;97820.69;;;5.82;97.29
27712;BME280;2377;51.734;8.950;2023-01-10T06:50:32;97812.91;;;5.83;97.36
27712;BME280;2377;51.734;8.950;2023-01-10T06:53:02;97832.06;;;5.86;97.43
27712;BME280;2377;51.734;8.950;2023-01-10T06:55:29;97838.28;;;5.83;97.19
27712;BME280;2377;51.734;8.950;2023-01-10T06:58:00;97846.28;;;5.87;97.12
27712;BME280;2377;51.734;8.950;2023-01-10T07:00:29;97861.09;;;5.83;97.41
27712;BME280;2377;51.734;8.950;2023-01-10T07:03:00;97854.19;;;5.77;97.47
27712;BME280;2377;51.734;8.950;2023-01-10T07:05:27;97867.38;;;5.87;97.23
27712;BME280;2377;51.734;8.950;2023-01-10T07:07:55;97856.03;;;5.83;97.29
27712;BME280;2377;51.734;8.950;2023-01-10T07:10:26;97861.13;;;5.90;97.68
27712;BME280;2377;51.734;8.950;2023-01-10T07:12:54;97861.13;;;5.90;97.95
27712;BME280;2377;51.734;8.950;2023-01-10T07:15:21;97871.50;;;5.88;97.76
27712;BME280;2377;51.734;8.950;2023-01-10T07:17:48;97866.34;;;5.82;98.08
27712;BME280;2377;51.734;8.950;2023-01-10T07:20:17;97869.50;;;5.84;98.17
27712;BME280;2377;51.734;8.950;2023-01-10T07:22:52;97874.19;;;5.87;98.18
27712;BME280;2377;51.734;8.950;2023-01-10T07:25:20;97882.81;;;5.92;97.89
27712;BME280;2377;51.734;8.950;2023-01-10T07:27:47;97874.44;;;5.92;98.24
27712;BME280;2377;51.734;8.950;2023-01-10T07:30:15;97871.13;;;5.91;98.56
27712;BME280;2377;51.734;8.950;2023-01-10T07:32:42;97891.06;;;5.95;98.17
27712;BME280;2377;51.734;8.950;2023-01-10T07:35:09;97884.06;;;5.97;97.47
27712;BME280;2377;51.734;8.950;2023-01-10T07:37:38;97894.66;;;6.00;97.88
27712;BME280;2377;51.734;8.950;2023-01-10T07:40:07;97895.38;;;5.94;97.65
27712;BME280;2377;51.734;8.950;2023-01-10T07:42:34;97902.16;;;5.93;98.07
27712;BME280;2377;51.734;8.950;2023-01-10T07:45:01;97890.91;;;5.96;97.70
27712;BME280;2377;51.734;8.950;2023-01-10T07:47:28;97899.72;;;6.00;97.90
27712;BME280;2377;51.734;8.950;2023-01-10T07:49:55;97909.25;;;5.98;97.84
27712;BME280;2377;51.734;8.950;2023-01-10T07:52:22;97904.69;;;5.93;97.83
27712;BME280;2377;51.734;8.950;2023-01-10T07:54:51;97912.94;;;5.96;97.98
27712;BME280;2377;51.734;8.950;2023-01-10T07:57:18;97920.56;;;5.96;98.08
27712;BME280;2377;51.734;8.950;2023-01-10T07:59:45;97916.72;;;6.00;97.94
27712;BME280;2377;51.734;8.950;2023-01-10T08:02:12;97914.94;;;6.00;98.13
27712;BME280;2377;51.734;8.950;2023-01-10T08:04:39;97921.41;;;6.03;98.08
27712;BME280;2377;51.734;8.950;2023-01-10T08:07:06;97929.56;;;5.98;98.03
27712;BME280;2377;51.734;8.950;2023-01-10T08:09:33;97938.31;;;5.96;98.10
27712;BME280;2377;51.734;8.950;2023-01-10T08:12:02;97934.63;;;5.98;98.47
27712;BME280;2377;51.734;8.950;2023-01-10T08:14:29;97916.13;;;6.04;97.95
27712;BME280;2377;51.734;8.950;2023-01-10T08:16:56;97911.44;;;6.01;98.19
27712;BME280;2377;51.734;8.950;2023-01-10T08:19:23;97913.03;;;6.02;98.43
27712;BME280;2377;51.734;8.950;2023-01-10T08:21:50;97926.34;;;6.11;97.79
27712;BME280;2377;51.734;8.950;2023-01-10T08:24:17;97928.28;;;6.09;97.50
27712;BME280;2377;51.734;8.950;2023-01-10T08:26:44;97928.03;;;6.04;97.75
27712;BME280;2377;51.734;8.950;2023-01-10T08:29:13;97927.88;;;6.05;97.50
27712;BME280;2377;51.734;8.950;2023-01-10T08:31:40;97934.16;;;6.09;97.87
27712;BME280;2377;51.734;8.950;2023-01-10T08:34:07;97924.72;;;6.03;97.86
27712;BME280;2377;51.734;8.950;2023-01-10T08:36:34;97932.16;;;6.05;97.32
27712;BME280;2377;51.734;8.950;2023-01-10T08:39:02;97931.97;;;6.06;97.28
27712;BME280;2377;51.734;8.950;2023-01-10T08:41:29;97934.94;;;6.10;97.27
27712;BME280;2377;51.734;8.950;2023-01-10T08:43:56;97941.16;;;6.07;97.39
27712;BME280;2377;51.734;8.950;2023-01-10T08:46:24;97945.88;;;6.10;97.23
27712;BME280;2377;51.734;8.950;2023-01-10T08:48:51;97946.25;;;6.07;97.13
27712;BME280;2377;51.734;8.950;2023-01-10T08:51:18;97941.94;;;6.08;97.19
27712;BME280;2377;51.734;8.950;2023-01-10T08:53:45;97948.41;;;6.10;97.42
27712;BME280;2377;51.734;8.950;2023-01-10T08:56:12;97948.03;;;6.13;97.18
27712;BME280;2377;51.734;8.950;2023-01-10T08:58:39;97954.81;;;6.06;97.05
27712;BME280;2377;51.734;8.950;2023-01-10T09:01:08;97960.72;;;6.13;97.11
27712;BME280;2377;51.734;8.950;2023-01-10T09:03:37;97958.41;;;6.12;96.95
27712;BME280;2377;51.734;8.950;2023-01-10T09:06:06;97960.72;;;6.13;97.41
27712;BME280;2377;51.734;8.950;2023-01-10T09:08:35;97963.53;;;6.19;97.19
27712;BME280;2377;51.734;8.950;2023-01-10T09:11:03;97974.41;;;6.12;97.33
27712;BME280;2377;51.734;8.950;2023-01-10T09:13:31;97969.56;;;6.18;96.94
27712;BME280;2377;51.734;8.950;2023-01-10T09:15:59;97975.72;;;6.08;97.08
27712;BME280;2377;51.734;8.950;2023-01-10T09:18:26;97982.63;;;6.14;97.16
27712;BME280;2377;51.734;8.950;2023-01-10T09:20:54;97984.56;;;6.12;97.01
27712;BME280;2377;51.734;8.950;2023-01-10T09:23:22;97986.09;;;6.13;97.40
27712;BME280;2377;51.734;8.950;2023-01-10T09:25:52;97992.34;;;6.11;97.31
27712;BME280;2377;51.734;8.950;2023-01-10T09:28:20;97996.38;;;6.05;97.57
27712;BME280;2377;51.734;8.950;2023-01-10T09:30:49;97997.25;;;6.12;97.46
27712;BME280;2377;51.734;8.950;2023-01-10T09:33:16;97994.34;;;6.16;97.82
27712;BME280;2377;51.734;8.950;2023-01-10T09:35:44;98001.00;;;6.02;98.02
27712;BME280;2377;51.734;8.950;2023-01-10T09:38:15;97997.78;;;6.08;98.13
27712;BME280;2377;51.734;8.950;2023-01-10T09:41:00;97999.16;;;6.10;98.42
27712;BME280;2377;51.734;8.950;2023-01-10T09:43:43;97995.84;;;6.10;98.42
27712;BME280;2377;51.734;8.950;2023-01-10T09:46:22;97995.13;;;6.16;98.43
27712;BME280;2377;51.734;8.950;2023-01-10T09:49:02;97991.19;;;6.13;98.11
27712;BME280;2377;51.734;8.950;2023-01-10T09:51:36;97992.56;;;6.16;98.23
27712;BME280;2377;51.734;8.950;2023-01-10T09:54:13;97991.47;;;6.19;98.53
27712;BME280;2377;51.734;8.950;2023-01-10T09:56:43;97999.31;;;6.24;98.38
27712;BME280;2377;51.734;8.950;2023-01-10T09:59:17;98003.41;;;6.25;98.43
27712;BME280;2377;51.734;8.950;2023-01-10T10:01:46;98003.84;;;6.28;98.06
27712;BME280;2377;51.734;8.950;2023-01-10T10:04:22;98013.81;;;6.30;97.92
27712;BME280;2377;51.734;8.950;2023-01-10T10:06:52;98011.34;;;6.37;97.28
27712;BME280;2377;51.734;8.950;2023-01-10T10:09:25;98012.09;;;6.30;97.68
27712;BME280;2377;51.734;8.950;2023-01-10T10:12:24;98013.63;;;6.31;96.86
27712;BME280;2377;51.734;8.950;2023-01-10T10:15:06;98019.75;;;6.37;96.64
27712;BME280;2377;51.734;8.950;2023-01-10T10:17:46;98021.69;;;6.35;96.13
27712;BME280;2377;51.734;8.950;2023-01-10T10:20:46;98024.56;;;6.32;94.94
27712;BME280;2377;51.734;8.950;2023-01-10T10:23:34;98022.28;;;6.37;95.39
27712;BME280;2377;51.734;8.950;2023-01-10T10:26:17;98030.09;;;6.35;95.66
27712;BME280;2377;51.734;8.950;2023-01-10T10:29:25;98029.72;;;6.39;95.24
27712;BME280;2377;51.734;8.950;2023-01-10T10:32:16;98015.28;;;6.39;95.72
27712;BME280;2377;51.734;8.950;2023-01-10T10:34:52;98023.50;;;6.41;95.81
27712;BME280;2377;51.734;8.950;2023-01-10T10:37:27;98016.66;;;6.42;95.22
27712;BME280;2377;51.734;8.950;2023-01-10T10:40:02;98017.47;;;6.42;94.97
27712;BME280;2377;51.734;8.950;2023-01-10T10:42:36;98012.56;;;6.41;94.78
27712;BME280;2377;51.734;8.950;2023-01-10T10:45:14;98010.19;;;6.39;95.41
27712;BME280;2377;51.734;8.950;2023-01-10T10:47:49;98016.31;;;6.45;94.84
27712;BME280;2377;51.734;8.950;2023-01-10T10:50:26;98011.41;;;6.43;94.22
27712;BME280;2377;51.734;8.950;2023-01-10T10:52:56;98011.31;;;6.51;94.39
27712;BME280;2377;51.734;8.950;2023-01-10T10:55:32;98015.78;;;6.49;94.14
27712;BME280;2377;51.734;8.950;2023-01-10T10:58:02;98014.03;;;6.50;94.04
27712;BME280;2377;51.734;8.950;2023-01-10T11:00:31;98009.34;;;6.53;94.53
27712;BME280;2377;51.734;8.950;2023-01-10T11:03:03;98012.88;;;6.52;93.20
27712;BME280;2377;51.734;8.950;2023-01-10T11:05:37;98024.34;;;6.48;93.82
27712;BME280;2377;51.734;8.950;2023-01-10T11:08:09;98014.97;;;6.49;93.53
27712;BME280;2377;51.734;8.950;2023-01-10T11:10:38;98015.78;;;6.49;93.17
27712;BME280;2377;51.734;8.950;2023-01-10T11:13:21;98019.88;;;6.50;93.26
27712;BME280;2377;51.734;8.950;2023-01-10T11:15:51;98024.25;;;6.56;93.90
27712;BME280;2377;51.734;8.950;2023-01-10T11:18:22;98019.16;;;6.56;93.35
27712;BME280;2377;51.734;8.950;2023-01-10T11:20:55;98023.09;;;6.59;93.60
27712;BME280;2377;51.734;8.950;2023-01-10T11:23:40;98019.03;;;6.65;93.24
27712;BME280;2377;51.734;8.950;2023-01-10T11:26:22;98018.19;;;6.57;93.32
27712;BME280;2377;51.734;8.950;2023-01-10T11:29:05;98021.72;;;6.56;92.59
27712;BME280;2377;51.734;8.950;2023-01-10T11:31:35;98008.88;;;6.65;92.42
27712;BME280;2377;51.734;8.950;2023-01-10T11:34:18;98024.50;;;6.62;92.36
27712;BME280;2377;51.734;8.950;2023-01-10T11:36:56;98016.88;;;6.62;91.87
27712;BME280;2377;51.734;8.950;2023-01-10T11:39:25;98008.09;;;6.64;91.58
27712;BME280;2377;51.734;8.950;2023-01-10T11:41:53;98005.63;;;6.71;91.26
27712;BME280;2377;51.734;8.950;2023-01-10T11:44:25;98015.59;;;6.72;91.19
27712;BME280;2377;51.734;8.950;2023-01-10T11:46:55;98018.66;;;6.68;90.76
27712;BME280;2377;51.734;8.950;2023-01-10T11:49:29;98005.78;;;6.69;90.58
27712;BME280;2377;51.734;8.950;2023-01-10T11:52:04;98010.09;;;6.69;91.37
27712;BME280;2377;51.734;8.950;2023-01-10T11:54:32;98016.19;;;6.74;90.67
27712;BME280;2377;51.734;8.950;2023-01-10T11:57:03;98020.50;;;6.74;90.26
27712;BME280;2377;51.734;8.950;2023-01-10T11:59:34;98010.31;;;6.74;89.85
27712;BME280;2377;51.734;8.950;2023-01-10T12:02:16;98019.16;;;6.78;90.13
27712;BME280;2377;51.734;8.950;2023-01-10T12:04:50;98012.16;;;6.80;89.65
27712;BME280;2377;51.734;8.950;2023-01-10T12:07:18;98006.69;;;6.83;90.58
27712;BME280;2377;51.734;8.950;2023-01-10T12:09:54;98020.00;;;6.85;90.26
27712;BME280;2377;51.734;8.950;2023-01-10T12:12:24;98003.78;;;6.86;89.58
27712;BME280;2377;51.734;8.950;2023-01-10T12:14:54;98006.31;;;6.86;90.02
27712;BME280;2377;51.734;8.950;2023-01-10T12:17:25;98000.28;;;6.87;90.24
27712;BME280;2377;51.734;8.950;2023-01-10T12:19:55;98003.66;;;6.94;90.99
27712;BME280;2377;51.734;8.950;2023-01-10T12:22:31;98007.41;;;6.98;90.51
27712;BME280;2377;51.734;8.950;2023-01-10T12:25:09;98000.75;;;6.97;89.50
27712;BME280;2377;51.734;8.950;2023-01-10T12:27:41;98000.38;;;7.01;89.44
27712;BME280;2377;51.734;8.950;2023-01-10T12:30:18;97989.25;;;7.02;89.69
27712;BME280;2377;51.734;8.950;2023-01-10T12:32:51;97999.03;;;7.05;90.21
27712;BME280;2377;51.734;8.950;2023-01-10T12:35:24;97999.81;;;7.05;90.30
27712;BME280;2377;51.734;8.950;2023-01-10T12:38:09;97997.53;;;7.10;89.45
27712;BME280;2377;51.734;8.950;2023-01-10T12:40:49;97996.13;;;7.08;89.73
27712;BME280;2377;51.734;8.950;2023-01-10T12:43:26;98003.75;;;7.08;89.27
27712;BME280;2377;51.734;8.950;2023-01-10T12:46:36;97998.66;;;7.08;88.63
27712;BME280;2377;51.734;8.950;2023-01-10T12:49:14;97995.91;;;7.03;89.36
27712;BME280;2377;51.734;8.950;2023-01-10T12:51:48;98004.44;;;6.95;89.00
27712;BME280;2377;51.734;8.950;2023-01-10T12:54:25;98006.81;;;6.96;88.34
27712;BME280;2377;51.734;8.950;2023-01-10T12:56:57;98008.53;;;6.96;89.53
27712;BME280;2377;51.734;8.950;2023-01-10T12:59:28;98003.72;;;7.01;88.18
27712;BME280;2377;51.734;8.950;2023-01-10T13:02:08;98010.53;;;7.01;86.68
27712;BME280;2377;51.734;8.950;2023-01-10T13:04:41;98006.81;;;6.96;87.62
27712;BME280;2377;51.734;8.950;2023-01-10T13:07:12;98017.81;;;7.04;87.25
27712;BME280;2377;51.734;8.950;2023-01-10T13:09:43;98012.28;;;7.00;86.61
27712;BME280;2377;51.734;8.950;2023-01-10T13:12:16;98013.22;;;6.92;85.66
27712;BME280;2377;51.734;8.950;2023-01-10T13:14:53;98013.00;;;6.87;84.80
27712;BME280;2377;51.734;8.950;2023-01-10T13:17:37;98016.91;;;6.90;85.16
27712;BME280;2377;51.734;8.950;2023-01-10T13:20:38;98005.38;;;6.87;85.85
27712;BME280;2377;51.734;8.950;2023-01-10T13:23:21;98002.47;;;6.90;86.34
27712;BME280;2377;51.734;8.950;2023-01-10T13:25:59;98008.13;;;6.92;85.54
27712;BME280;2377;51.734;8.950;2023-01-10T13:28:29;97997.38;;;6.90;85.72
27712;BME280;2377;51.734;8.950;2023-01-10T13:31:00;97986.97;;;6.85;85.71
27712;BME280;2377;51.734;8.950;2023-01-10T13:33:31;97994.00;;;6.83;86.35
27712;BME280;2377;51.734;8.950;2023-01-10T13:36:10;97991.06;;;6.86;85.70
27712;BME280;2377;51.734;8.950;2023-01-10T13:38:48;97986.44;;;6.90;86.19
27712;BME280;2377;51.734;8.950;2023-01-10T13:41:16;97991.91;;;6.93;86.22
27712;BME280;2377;51.734;8.950;2023-01-10T13:44:08;97984.66;;;6.90;86.75
27712;BME280;2377;51.734;8.950;2023-01-10T13:46:39;97978.38;;;6.86;85.77
27712;BME280;2377;51.734;8.950;2023-01-10T13:49:44;97977.78;;;6.84;85.55